createdAt,value
2019-04-11T00:01:12.672Z,99.90
2019-04-11T00:03:41.838Z,99.90
2019-04-11T00:06:11.847Z,99.90
2019-04-11T00:08:41.919Z,99.90
2019-04-11T00:11:11.514Z,99.90
2019-04-11T00:13:41.116Z,99.90
2019-04-11T00:16:10.437Z,99.90
2019-04-11T00:18:40.924Z,99.90
2019-04-11T00:21:10.787Z,99.90
2019-04-11T00:23:40.565Z,99.90
2019-04-11T00:26:09.627Z,99.90
2019-04-11T00:28:39.531Z,99.90
2019-04-11T00:31:08.688Z,99.90
2019-04-11T00:33:38.216Z,99.90
2019-04-11T00:36:08.231Z,99.90
2019-04-11T00:38:38.262Z,99.90
2019-04-11T00:41:07.979Z,99.90
2019-04-11T00:43:41.693Z,99.90
2019-04-11T00:46:07.987Z,99.90
2019-04-11T00:48:37.741Z,99.90
2019-04-11T00:51:07.730Z,99.90
2019-04-11T00:53:38.231Z,99.90
2019-04-11T00:56:08.184Z,99.90
2019-04-11T00:58:38.259Z,99.90
2019-04-11T01:01:07.398Z,99.90
2019-04-11T01:03:36.453Z,99.90
2019-04-11T01:06:05.796Z,99.90
2019-04-11T01:08:35.677Z,99.90
2019-04-11T01:11:05.789Z,99.90
2019-04-11T01:13:45.632Z,99.90
2019-04-11T01:16:15.759Z,99.90
2019-04-11T01:18:44.835Z,99.90
2019-04-11T01:21:14.081Z,99.90
2019-04-11T01:23:43.157Z,99.90
2019-04-11T01:26:12.842Z,99.90
2019-04-11T01:28:42.898Z,99.90
2019-04-11T01:31:13.508Z,99.90
2019-04-11T01:33:42.695Z,99.90
2019-04-11T01:36:12.696Z,99.90
2019-04-11T01:38:46.394Z,99.90
2019-04-11T01:41:15.431Z,99.90
2019-04-11T01:43:55.423Z,99.90
2019-04-11T01:46:16.080Z,99.90
2019-04-11T01:48:52.862Z,99.90
2019-04-11T01:51:21.925Z,99.90
2019-04-11T01:53:51.114Z,99.90
2019-04-11T01:56:21.095Z,99.90
2019-04-11T01:58:51.016Z,99.90
2019-04-11T02:01:33.775Z,99.90
2019-04-11T02:04:14.430Z,99.90
2019-04-11T02:06:43.603Z,99.90
2019-04-11T02:09:15.895Z,99.90
2019-04-11T02:11:45.744Z,99.90
2019-04-11T02:14:16.889Z,99.90
2019-04-11T02:16:45.744Z,99.90
2019-04-11T02:19:14.891Z,99.90
2019-04-11T02:21:44.226Z,99.90
2019-04-11T02:24:25.843Z,99.90
2019-04-11T02:27:19.136Z,99.90
2019-04-11T02:29:48.876Z,99.90
2019-04-11T02:32:18.912Z,99.90
2019-04-11T02:34:50.660Z,99.90
2019-04-11T02:37:21.778Z,99.90
2019-04-11T02:39:51.586Z,99.90
2019-04-11T02:42:21.439Z,99.90
2019-04-11T02:45:03.398Z,99.90
2019-04-11T02:47:27.714Z,99.90
2019-04-11T02:49:55.134Z,99.90
2019-04-11T02:52:25.322Z,99.90
2019-04-11T02:54:56.689Z,99.90
2019-04-11T02:57:26.506Z,99.90
2019-04-11T02:59:56.400Z,99.90
2019-04-11T03:02:26.667Z,99.90
2019-04-11T03:04:56.534Z,99.90
2019-04-11T03:07:26.463Z,99.90
2019-04-11T03:09:56.490Z,99.90
2019-04-11T03:12:27.399Z,99.90
2019-04-11T03:15:23.081Z,99.90
2019-04-11T03:17:34.093Z,99.90
2019-04-11T03:20:10.467Z,99.90
2019-04-11T03:22:29.988Z,99.90
2019-04-11T03:25:00.354Z,99.90
2019-04-11T03:27:30.508Z,99.90
2019-04-11T03:30:00.670Z,99.90
2019-04-11T03:33:17.259Z,99.90
2019-04-11T03:38:00.435Z,99.90
2019-04-11T03:40:22.595Z,99.90
2019-04-11T03:42:49.448Z,99.90
2019-04-11T03:45:25.567Z,99.90
2019-04-11T03:47:50.549Z,99.90
2019-04-11T03:50:15.010Z,99.90
2019-04-11T03:52:38.793Z,99.90
2019-04-11T03:55:08.644Z,99.90
2019-04-11T03:57:39.409Z,99.90
2019-04-11T04:00:10.245Z,99.90
2019-04-11T04:02:41.159Z,99.90
2019-04-11T04:05:10.813Z,99.90
2019-04-11T04:07:40.457Z,99.90
2019-04-11T04:10:13.094Z,99.90
2019-04-11T04:12:40.922Z,99.90
2019-04-11T04:15:35.913Z,99.90
2019-04-11T04:18:15.137Z,99.90
2019-04-11T04:21:01.862Z,99.90
2019-04-11T04:23:35.871Z,99.90
2019-04-11T04:26:09.588Z,99.90
2019-04-11T04:28:38.082Z,99.90
2019-04-11T04:31:09.132Z,99.90
2019-04-11T04:33:39.940Z,99.90
2019-04-11T04:36:11.045Z,99.90
2019-04-11T04:38:41.478Z,99.90
2019-04-11T04:41:22.316Z,99.90
2019-04-11T04:43:44.899Z,99.90
2019-04-11T04:46:29.862Z,99.90
2019-04-11T04:48:46.907Z,99.90
2019-04-11T04:51:17.397Z,99.90
2019-04-11T04:53:48.053Z,99.90
2019-04-11T04:56:22.839Z,99.90
2019-04-11T04:58:48.590Z,99.90
2019-04-11T05:01:19.276Z,99.90
2019-04-11T05:03:50.868Z,99.90
2019-04-11T05:06:20.690Z,99.90
2019-04-11T05:08:51.277Z,99.90
2019-04-11T05:11:20.524Z,99.90
2019-04-11T05:13:51.761Z,99.90
2019-04-11T05:16:20.424Z,99.90
2019-04-11T05:18:50.466Z,99.90
2019-04-11T05:21:19.691Z,99.90
2019-04-11T05:23:48.789Z,99.90
2019-04-11T05:26:19.381Z,99.90
2019-04-11T05:28:48.856Z,99.90
2019-04-11T05:31:18.507Z,99.90
2019-04-11T05:33:47.632Z,99.90
2019-04-11T05:36:16.724Z,99.90
2019-04-11T05:38:46.386Z,99.90
2019-04-11T05:41:15.577Z,99.90
2019-04-11T05:43:45.176Z,99.90
2019-04-11T05:46:26.273Z,99.90
2019-04-11T05:49:05.450Z,99.90
2019-04-11T05:51:40.944Z,99.90
2019-04-11T05:54:07.539Z,99.90
2019-04-11T05:56:37.549Z,99.90
2019-04-11T05:59:15.273Z,99.90
2019-04-11T06:01:50.805Z,99.90
2019-04-11T06:04:30.477Z,99.90
2019-04-11T06:07:21.641Z,99.90
2019-04-11T06:09:53.159Z,99.90
2019-04-11T06:12:37.988Z,99.90
2019-04-11T06:15:19.940Z,99.90
2019-04-11T06:17:48.799Z,99.90
2019-04-11T06:20:37.576Z,99.90
2019-04-11T06:23:25.559Z,99.90
2019-04-11T06:26:11.293Z,99.90
2019-04-11T06:28:40.379Z,99.90
2019-04-11T06:31:27.039Z,99.90
2019-04-11T06:34:02.063Z,99.90
2019-04-11T06:37:09.486Z,99.90
2019-04-11T06:39:43.473Z,99.90
2019-04-11T06:42:31.724Z,99.90
2019-04-11T06:45:20.029Z,99.90
2019-04-11T06:48:09.359Z,99.90
2019-04-11T06:51:00.338Z,99.90
2019-04-11T06:53:42.070Z,99.90
2019-04-11T06:56:30.396Z,99.90
2019-04-11T06:59:03.969Z,99.90
2019-04-11T07:01:34.112Z,99.90
2019-04-11T07:04:06.500Z,99.90
2019-04-11T07:06:37.778Z,99.90
2019-04-11T07:09:17.737Z,99.90
2019-04-11T07:11:57.070Z,99.90
2019-04-11T07:14:48.609Z,99.90
2019-04-11T07:17:36.919Z,99.90
2019-04-11T07:20:32.038Z,99.90
2019-04-11T07:23:20.053Z,99.90
2019-04-11T07:25:56.066Z,99.90
2019-04-11T07:28:44.223Z,99.90
2019-04-11T07:31:32.387Z,99.90
2019-04-11T07:34:37.672Z,99.90
2019-04-11T07:37:23.932Z,99.90
2019-04-11T07:40:24.371Z,99.90
2019-04-11T07:43:13.915Z,99.90
2019-04-11T07:45:58.485Z,99.90
2019-04-11T07:48:30.788Z,99.90
2019-04-11T07:51:11.374Z,99.90
2019-04-11T07:53:43.806Z,99.90
2019-04-11T07:56:29.491Z,99.90
2019-04-11T07:59:01.216Z,99.90
2019-04-11T08:01:55.239Z,99.90
2019-04-11T08:04:43.387Z,99.90
2019-04-11T08:07:32.656Z,99.90
2019-04-11T08:10:08.186Z,99.90
2019-04-11T08:12:37.420Z,99.90
2019-04-11T08:15:24.174Z,99.90
2019-04-11T08:17:54.312Z,99.90
2019-04-11T08:20:51.583Z,99.90
2019-04-11T08:23:23.476Z,99.90
2019-04-11T08:26:10.058Z,99.70
2019-04-11T08:28:40.793Z,99.10
2019-04-11T08:31:40.877Z,99.60
2019-04-11T08:34:11.087Z,99.90
2019-04-11T08:36:59.193Z,98.40
2019-04-11T08:39:33.239Z,97.10
2019-04-11T08:42:21.447Z,96.10
2019-04-11T08:44:50.523Z,94.50
2019-04-11T08:47:20.801Z,95.70
2019-04-11T08:49:55.809Z,94.10
2019-04-11T08:52:44.408Z,91.60
2019-04-11T08:55:19.063Z,91.40
2019-04-11T08:57:51.895Z,90.70
2019-04-11T09:00:38.056Z,90.20
2019-04-11T09:03:17.689Z,87.20
2019-04-11T09:06:18.855Z,88.50
2019-04-11T09:09:09.201Z,91.00
2019-04-11T09:11:42.219Z,84.80
2019-04-11T09:14:28.837Z,82.80
2019-04-11T09:17:14.859Z,81.20
2019-04-11T09:20:03.275Z,81.90
2019-04-11T09:22:44.953Z,82.90
2019-04-11T09:25:43.321Z,79.70
2019-04-11T09:28:17.937Z,80.00
2019-04-11T09:31:07.569Z,78.30
2019-04-11T09:33:57.659Z,82.30
2019-04-11T09:36:36.938Z,84.90
2019-04-11T09:39:15.098Z,81.60
2019-04-11T09:42:20.185Z,81.20
2019-04-11T09:45:19.927Z,81.00
2019-04-11T09:48:24.553Z,78.50
2019-04-11T09:51:11.483Z,75.40
2019-04-11T09:53:41.271Z,74.50
2019-04-11T09:56:27.774Z,72.10
2019-04-11T09:58:58.706Z,71.00
2019-04-11T10:01:45.461Z,69.90
2019-04-11T10:04:14.585Z,72.40
2019-04-11T10:07:01.294Z,73.30
2019-04-11T10:09:44.108Z,70.70
2019-04-11T10:12:31.864Z,72.90
2019-04-11T10:15:01.346Z,73.10
2019-04-11T10:17:48.484Z,73.90
2019-04-11T10:20:18.706Z,71.80
2019-04-11T10:23:10.311Z,66.40
2019-04-11T10:25:47.511Z,68.20
2019-04-11T10:28:27.306Z,67.50
2019-04-11T10:31:14.725Z,67.40
2019-04-11T10:34:18.186Z,69.40
2019-04-11T10:37:01.045Z,67.70
2019-04-11T10:39:59.856Z,65.70
2019-04-11T10:42:32.861Z,67.10
2019-04-11T10:45:28.820Z,66.70
2019-04-11T10:48:07.854Z,66.80
2019-04-11T10:51:04.771Z,66.10
2019-04-11T10:53:33.866Z,64.50
2019-04-11T10:56:22.245Z,62.80
2019-04-11T10:58:57.406Z,62.00
2019-04-11T11:01:53.079Z,62.00
2019-04-11T11:04:25.558Z,62.50
2019-04-11T11:06:57.649Z,62.00
2019-04-11T11:09:37.021Z,63.50
2019-04-11T11:12:41.326Z,61.50
2019-04-11T11:15:23.301Z,60.50
2019-04-11T11:18:41.062Z,59.90
2019-04-11T11:21:02.626Z,58.10
2019-04-11T11:23:49.265Z,58.40
2019-04-11T11:26:24.795Z,56.90
2019-04-11T11:29:18.589Z,56.60
2019-04-11T11:31:54.588Z,58.00
2019-04-11T11:34:28.410Z,56.80
2019-04-11T11:37:22.872Z,55.70
2019-04-11T11:40:18.764Z,56.30
2019-04-11T11:43:06.419Z,57.10
2019-04-11T11:45:56.588Z,57.90
2019-04-11T11:48:48.770Z,57.60
2019-04-11T11:51:26.939Z,56.40
2019-04-11T11:54:13.623Z,56.40
2019-04-11T11:56:44.438Z,57.50
2019-04-11T11:59:18.140Z,55.10
2019-04-11T12:01:54.289Z,55.10
2019-04-11T12:04:42.128Z,54.60
2019-04-11T12:07:12.773Z,56.60
2019-04-11T12:10:00.585Z,52.60
2019-04-11T12:12:38.036Z,52.80
2019-04-11T12:15:26.595Z,52.70
2019-04-11T12:18:15.820Z,54.10
2019-04-11T12:20:49.759Z,53.40
2019-04-11T12:23:53.874Z,52.90
2019-04-11T12:26:15.155Z,52.40
2019-04-11T12:29:12.520Z,51.40
2019-04-11T12:31:48.119Z,50.80
2019-04-11T12:34:45.462Z,52.70
2019-04-11T12:37:23.445Z,52.00
2019-04-11T12:40:26.793Z,52.70
2019-04-11T12:42:56.224Z,50.90
2019-04-11T12:45:59.225Z,50.50
2019-04-11T12:48:32.784Z,50.70
2019-04-11T12:51:20.954Z,51.10
2019-04-11T12:53:49.992Z,52.40
2019-04-11T12:56:25.443Z,54.00
2019-04-11T12:59:09.797Z,53.10
2019-04-11T13:01:56.651Z,51.80
2019-04-11T13:04:30.521Z,54.00
2019-04-11T13:07:21.457Z,54.30
2019-04-11T13:09:55.574Z,54.90
2019-04-11T13:12:32.070Z,53.20
2019-04-11T13:15:22.607Z,53.30
2019-04-11T13:18:02.280Z,52.60
2019-04-11T13:20:50.392Z,51.30
2019-04-11T13:23:36.950Z,50.20
2019-04-11T13:26:43.257Z,50.20
2019-04-11T13:29:34.447Z,50.50
2019-04-11T13:32:37.722Z,50.80
2019-04-11T13:35:12.525Z,50.50
2019-04-11T13:37:59.662Z,50.10
2019-04-11T13:41:03.049Z,49.70
2019-04-11T13:43:55.887Z,50.50
2019-04-11T13:46:47.074Z,51.60
2019-04-11T13:49:33.736Z,53.30
2019-04-11T13:52:27.847Z,52.10
2019-04-11T13:55:19.739Z,50.40
2019-04-11T13:58:07.909Z,49.30
2019-04-11T14:01:01.956Z,49.70
2019-04-11T14:03:50.089Z,49.60
2019-04-11T14:06:33.795Z,50.30
2019-04-11T14:09:24.866Z,48.90
2019-04-11T14:11:58.767Z,49.30
2019-04-11T14:14:55.717Z,48.80
2019-04-11T14:17:36.630Z,49.40
2019-04-11T14:20:29.255Z,48.80
2019-04-11T14:23:14.856Z,47.50
2019-04-11T14:26:04.410Z,47.30
2019-04-11T14:28:37.595Z,47.50
2019-04-11T14:31:24.274Z,47.80
2019-04-11T14:33:58.064Z,46.30
2019-04-11T14:36:58.113Z,46.20
2019-04-11T14:39:29.281Z,45.90
2019-04-11T14:42:12.059Z,45.50
2019-04-11T14:44:41.656Z,45.50
2019-04-11T14:47:47.992Z,45.30
2019-04-11T14:50:18.475Z,44.80
2019-04-11T14:53:24.814Z,45.30
2019-04-11T14:56:01.188Z,44.50
2019-04-11T14:58:47.014Z,43.50
2019-04-11T15:01:16.966Z,42.80
2019-04-11T15:04:07.956Z,42.60
2019-04-11T15:06:44.584Z,42.50
2019-04-11T15:09:29.213Z,45.10
2019-04-11T15:12:23.458Z,44.50
2019-04-11T15:15:23.414Z,43.20
2019-04-11T15:17:57.968Z,42.20
2019-04-11T15:20:55.231Z,42.40
2019-04-11T15:23:31.252Z,43.40
2019-04-11T15:26:22.574Z,42.70
2019-04-11T15:28:57.594Z,43.00
2019-04-11T15:32:03.812Z,43.30
2019-04-11T15:34:44.365Z,43.80
2019-04-11T15:37:47.617Z,43.50
2019-04-11T15:40:20.141Z,47.10
2019-04-11T15:43:06.970Z,49.10
2019-04-11T15:45:40.445Z,50.80
2019-04-11T15:48:31.373Z,51.50
2019-04-11T15:51:37.557Z,52.00
2019-04-11T15:54:23.995Z,51.70
2019-04-11T15:57:18.414Z,51.60
2019-04-11T16:00:06.569Z,52.30
2019-04-11T16:03:00.979Z,51.40
2019-04-11T16:05:49.181Z,52.00
2019-04-11T16:08:46.396Z,52.90
2019-04-11T16:11:52.443Z,53.00
2019-04-11T16:14:34.001Z,52.80
2019-04-11T16:17:34.081Z,52.60
2019-04-11T16:20:18.145Z,52.40
2019-04-11T16:23:15.017Z,52.90
2019-04-11T16:25:47.129Z,53.20
2019-04-11T16:28:38.973Z,53.20
2019-04-11T16:31:10.395Z,53.30
2019-04-11T16:34:15.785Z,52.70
2019-04-11T16:36:50.614Z,52.50
2019-04-11T16:39:47.908Z,52.30
2019-04-11T16:42:21.856Z,52.00
2019-04-11T16:45:24.669Z,52.00
2019-04-11T16:48:09.545Z,51.50
2019-04-11T16:50:38.635Z,51.40
2019-04-11T16:53:10.518Z,51.50
2019-04-11T16:55:41.965Z,51.90
2019-04-11T16:58:09.350Z,52.00
2019-04-11T17:00:38.495Z,51.20
2019-04-11T17:03:07.587Z,51.20
2019-04-11T17:05:39.072Z,51.00
2019-04-11T17:08:31.503Z,51.40
2019-04-11T17:11:19.668Z,51.70
2019-04-11T17:13:48.771Z,51.40
2019-04-11T17:16:19.141Z,50.80
2019-04-11T17:18:48.241Z,51.10
2019-04-11T17:21:17.444Z,50.90
2019-04-11T17:23:47.115Z,49.70
2019-04-11T17:26:16.895Z,49.40
2019-04-11T17:28:46.003Z,49.30
2019-04-11T17:31:15.141Z,48.60
2019-04-11T17:33:44.232Z,49.50
2019-04-11T17:36:13.333Z,48.70
2019-04-11T17:38:42.402Z,48.90
2019-04-11T17:41:12.118Z,48.30
2019-04-11T17:43:42.261Z,48.20
2019-04-11T17:46:11.536Z,47.50
2019-04-11T17:48:40.610Z,47.50
2019-04-11T17:51:09.836Z,47.80
2019-04-11T17:53:38.950Z,48.40
2019-04-11T17:56:08.047Z,48.40
2019-04-11T17:58:37.129Z,48.70
2019-04-11T18:01:07.233Z,48.80
2019-04-11T18:03:36.306Z,48.30
2019-04-11T18:06:05.540Z,48.70
2019-04-11T18:08:34.613Z,48.60
2019-04-11T18:11:03.729Z,49.40
2019-04-11T18:13:32.810Z,50.10
2019-04-11T18:16:01.935Z,50.30
2019-04-11T18:18:34.805Z,50.90
2019-04-11T18:21:01.940Z,50.70
2019-04-11T18:23:31.076Z,50.60
2019-04-11T18:26:00.169Z,49.70
2019-04-11T18:28:29.248Z,49.70
2019-04-11T18:30:58.345Z,51.10
2019-04-11T18:33:31.468Z,51.00
2019-04-11T18:36:01.936Z,50.90
2019-04-11T18:38:31.812Z,51.30
2019-04-11T18:41:00.012Z,50.80
2019-04-11T18:43:29.095Z,51.40
2019-04-11T18:45:58.195Z,51.60
2019-04-11T18:48:27.314Z,52.20
2019-04-11T18:50:56.427Z,52.40
2019-04-11T18:53:25.531Z,52.40
2019-04-11T18:55:54.631Z,52.70
2019-04-11T18:58:23.759Z,53.00
2019-04-11T19:00:52.971Z,53.00
2019-04-11T19:03:22.077Z,52.90
2019-04-11T19:05:51.151Z,53.70
2019-04-11T19:08:20.299Z,53.90
2019-04-11T19:10:49.412Z,53.80
2019-04-11T19:13:18.490Z,53.70
2019-04-11T19:15:47.547Z,53.10
2019-04-11T19:18:17.192Z,54.00
2019-04-11T19:20:49.958Z,53.80
2019-04-11T19:23:17.292Z,54.00
2019-04-11T19:25:46.372Z,53.90
2019-04-11T19:28:15.449Z,53.70
2019-04-11T19:30:44.714Z,54.30
2019-04-11T19:33:13.779Z,54.30
2019-04-11T19:35:42.886Z,54.50
2019-04-11T19:38:24.523Z,54.00
2019-04-11T19:40:55.619Z,53.70
2019-04-11T19:43:24.462Z,54.30
2019-04-11T19:45:53.488Z,55.00
2019-04-11T19:48:22.750Z,54.70
2019-04-11T19:50:53.410Z,54.70
2019-04-11T19:53:22.484Z,54.50
2019-04-11T19:56:16.653Z,54.90
2019-04-11T19:58:45.853Z,55.40
2019-04-11T20:01:14.988Z,55.10
2019-04-11T20:03:44.151Z,55.10
2019-04-11T20:06:13.504Z,55.30
2019-04-11T20:08:42.707Z,55.20
2019-04-11T20:11:11.773Z,55.60
2019-04-11T20:13:40.853Z,55.50
2019-04-11T20:16:12.190Z,55.70
2019-04-11T20:18:50.312Z,55.80
2019-04-11T20:21:11.553Z,56.20
2019-04-11T20:23:42.720Z,56.30
2019-04-11T20:26:11.552Z,56.50
2019-04-11T20:28:40.618Z,56.50
2019-04-11T20:31:09.633Z,56.70
2019-04-11T20:33:38.676Z,57.00
2019-04-11T20:36:08.193Z,57.00
2019-04-11T20:38:38.635Z,57.20
2019-04-11T20:41:07.810Z,57.40
2019-04-11T20:43:36.889Z,57.70
2019-04-11T20:46:05.979Z,57.80
2019-04-11T20:48:35.350Z,57.70
2019-04-11T20:51:04.618Z,57.70
2019-04-11T20:53:36.557Z,57.90
2019-04-11T20:56:04.816Z,57.90
2019-04-11T20:58:33.912Z,58.10
2019-04-11T21:01:03.565Z,58.20
2019-04-11T21:03:32.640Z,58.30
2019-04-11T21:06:02.492Z,58.50
2019-04-11T21:08:33.055Z,58.60
2019-04-11T21:11:04.649Z,58.90
2019-04-11T21:13:33.288Z,58.90
2019-04-11T21:16:02.379Z,59.00
2019-04-11T21:18:31.453Z,59.40
2019-04-11T21:21:00.549Z,59.30
2019-04-11T21:23:30.253Z,59.40
2019-04-11T21:25:59.725Z,59.40
2019-04-11T21:28:30.284Z,59.30
2019-04-11T21:31:00.684Z,59.60
2019-04-11T21:33:34.282Z,59.70
2019-04-11T21:36:01.373Z,59.90
2019-04-11T21:38:31.555Z,60.00
2019-04-11T21:41:00.778Z,60.10
2019-04-11T21:43:29.854Z,60.10
2019-04-11T21:45:59.045Z,60.20
2019-04-11T21:48:28.033Z,60.40
2019-04-11T21:50:57.123Z,60.50
2019-04-11T21:53:36.007Z,60.40
2019-04-11T21:55:57.067Z,60.40
2019-04-11T21:58:26.180Z,60.40
2019-04-11T22:01:01.226Z,60.60
2019-04-11T22:03:30.791Z,60.80
2019-04-11T22:06:00.542Z,61.60
2019-04-11T22:08:31.988Z,60.80
2019-04-11T22:11:03.041Z,60.80
2019-04-11T22:13:31.456Z,60.90
2019-04-11T22:16:00.546Z,60.70
2019-04-11T22:18:29.608Z,60.80
2019-04-11T22:20:58.690Z,60.90
2019-04-11T22:23:27.771Z,60.80
2019-04-11T22:25:56.873Z,60.60
2019-04-11T22:28:25.966Z,60.60
2019-04-11T22:30:55.690Z,60.50
2019-04-11T22:33:46.685Z,60.40
2019-04-11T22:36:15.872Z,60.40
2019-04-11T22:38:44.924Z,60.30
2019-04-11T22:41:14.029Z,60.20
2019-04-11T22:43:43.098Z,60.30
2019-04-11T22:46:20.617Z,60.30
2019-04-11T22:48:42.966Z,60.40
2019-04-11T22:51:12.051Z,60.10
2019-04-11T22:53:43.342Z,60.20
2019-04-11T22:56:12.381Z,60.10
2019-04-11T22:58:43.507Z,60.20
2019-04-11T23:01:13.985Z,60.20
2019-04-11T23:03:47.660Z,60.20
2019-04-11T23:06:17.291Z,60.00
2019-04-11T23:08:48.902Z,60.10
2019-04-11T23:11:17.634Z,59.80
2019-04-11T23:13:46.699Z,59.80
2019-04-11T23:16:15.821Z,60.00
2019-04-11T23:18:44.959Z,59.90
2019-04-11T23:21:15.051Z,59.90
2019-04-11T23:23:44.271Z,59.70
2019-04-11T23:26:13.361Z,59.70
2019-04-11T23:28:45.918Z,59.70
2019-04-11T23:31:13.372Z,59.70
2019-04-11T23:33:42.371Z,59.90
2019-04-11T23:36:11.466Z,60.00
2019-04-11T23:38:40.585Z,59.90
2019-04-11T23:41:09.678Z,60.00
2019-04-11T23:43:38.724Z,60.00
2019-04-11T23:46:07.898Z,60.20
2019-04-11T23:48:36.960Z,60.20
2019-04-11T23:51:06.088Z,60.00
2019-04-11T23:53:35.122Z,60.00
2019-04-11T23:56:04.203Z,60.00
2019-04-11T23:58:33.280Z,60.00
